Akron, IA

4:28 PM CDT on September 04, 2015 (GMT -0500)
Rural Elk Point | | Change Station
CLOSE
Current Station
Personal Weather Station
Location: Elk Point, SD
Elevation: 1119 ft
Nearby Weather Stations

Elev 1119 ft 42.63 °N, 96.64 °W | Updated 3 minutes ago

Clear
Clear
85.6 °F
Feels Like 93 °F
N
6.9
Wind Variable Wind from East
Gusts 8.3 mph

Today
High -- | Low -- °F
--% Chance of Precip.
Yesterday
High -- | Low -- °F
Precip. -- in
6:53 AM 7:55 PM
Waning Gibbous, 56% visible
Pressure 29.86 in
Visibility 10.0 miles
Clouds Clear
Heat Index 93 °F
Dew Point 74 °F
Humidity 67%
Rainfall 0.00 in
Snow Depth Not available.
UV 5 out of 12
Pollen 9.50 out of 12
Air Quality Not available.
Flu Activity Not available.
METAR KLRJ 042115Z AUTO 16014KT 10SM CLR 30/22 A2986 RMK AO2
Pressure 29.86 in
Visibility 10.0 miles
Clouds Clear
Heat Index 93 °F
Dew Point 74 °F
Humidity 67%
Rainfall 0.00 in
Snow Depth Not available.
UV 5 out of 12
Pollen 9.50 out of 12
Air Quality Not available.
Flu Activity Not available.
METAR KLRJ 042115Z AUTO 16014KT 10SM CLR 30/22 A2986 RMK AO2

10-Day Weather Forecast

×

Almanac

Astronomy

Sep. 04, 2015 Rise Set
Actual Time
Civil Twilight
Nautical Twilight
Astronomical Twilight
Moon
Length of Visible Light
Length of Day
Tomorrow will be .
, % of the Moon is Illuminated

Today's Extremes

State Highs State Lows

Community

WunderPhotos

Upload Photos

1,852,297 photos uploaded!

WunderBlogs® & News

Nearby

Air Quality

  Air Quality AQ Index Pollutant
Not available.

Snow Depth

Station Depth Elevation

Earthquake Activity

City Distance Mag. Time & Date
Minimum magnitude displayed is 2.5.

Coastal Water Temperatures

Place Temperature

Stations

Nearby Weather Stations

Station Location Temp. Windchill Dew Point Humidity Wind Precip. Elev Updated Type